createdAt,value
2023-01-30T00:05:00.190Z,2.4
2023-01-30T00:15:02.091Z,2.6
2023-01-30T00:25:04.746Z,2.6
2023-01-30T00:35:06.965Z,2.7
2023-01-30T00:45:08.952Z,2.8
2023-01-30T00:55:11.346Z,2.7
2023-01-30T01:05:13.826Z,2.8
2023-01-30T01:15:16.562Z,2.8
2023-01-30T01:25:18.477Z,2.8
2023-01-30T01:35:20.869Z,2.9
2023-01-30T01:45:23.207Z,3
2023-01-30T01:55:25.308Z,3
2023-01-30T02:05:27.148Z,3
2023-01-30T02:15:29.021Z,3.1
2023-01-30T02:25:31.379Z,3.2
2023-01-30T02:35:33.218Z,3.4
2023-01-30T02:45:34.920Z,3.6
2023-01-30T02:55:37.161Z,3.7
2023-01-30T03:05:39.599Z,3.9
2023-01-30T03:15:41.301Z,4.1
2023-01-30T03:25:43.221Z,4.3
2023-01-30T03:35:45.358Z,4.3
2023-01-30T03:45:47.983Z,4.2
2023-01-30T03:55:49.710Z,4.2
2023-01-30T04:05:51.773Z,4.2
2023-01-30T04:15:53.750Z,4.3
2023-01-30T04:25:56.428Z,4.2
2023-01-30T04:35:58.116Z,4.3
2023-01-30T04:56:02.588Z,4.3
2023-01-30T05:06:05.051Z,4.4
2023-01-30T05:16:07.361Z,4.5
2023-01-30T05:26:09.124Z,4.5
2023-01-30T05:36:11.754Z,4.6
2023-01-30T05:46:14.040Z,4.7
2023-01-30T05:56:16.044Z,4.7
2023-01-30T06:06:18.675Z,4.8
2023-01-30T06:16:20.795Z,4.9
2023-01-30T06:26:23.022Z,5.1
2023-01-30T06:36:25.364Z,5.3
2023-01-30T06:46:27.740Z,5.4
2023-01-30T06:56:29.569Z,5.4
2023-01-30T07:06:31.475Z,5.4
2023-01-30T07:16:33.997Z,5.5
2023-01-30T07:26:36.614Z,5.6
2023-01-30T07:36:38.508Z,5.6
2023-01-30T07:46:41.022Z,5.7
2023-01-30T07:56:43.496Z,5.7
2023-01-30T08:16:48.098Z,5.7
2023-01-30T08:26:49.995Z,5.7
2023-01-30T08:46:54.609Z,5.7
2023-01-30T08:56:56.712Z,5.7
2023-01-30T09:06:58.771Z,5.7
2023-01-30T09:17:01.248Z,5.8
2023-01-30T09:27:03.181Z,5.9
2023-01-30T09:47:08.310Z,5.8
2023-01-30T09:57:21.505Z,5.7
2023-01-30T10:07:12.999Z,6.1
2023-01-30T10:17:14.819Z,6.1
2023-01-30T10:27:16.814Z,6.1
2023-01-30T10:37:19.308Z,6
2023-01-30T11:07:25.397Z,6.2
2023-01-30T11:27:29.427Z,6.1
2023-01-30T11:37:31.052Z,6.2
2023-01-30T11:47:33.363Z,6.2
2023-01-30T11:57:35.205Z,6.3
2023-01-30T12:07:37.887Z,5.8
2023-01-30T12:17:40.409Z,6.3
2023-01-30T12:27:42.627Z,6.5
2023-01-30T12:37:44.319Z,6.8
2023-01-30T12:47:46.065Z,6.7
2023-01-30T12:57:47.876Z,6.8
2023-01-30T13:07:50.236Z,6.9
2023-01-30T13:09:17.650Z,6.9
2023-01-30T13:18:01.169Z,7
2023-01-30T13:28:03.303Z,7
2023-01-30T13:38:05.512Z,7.1
2023-01-30T13:48:08.013Z,7
2023-01-30T13:58:09.682Z,7.1
2023-01-30T14:08:12.177Z,7
2023-01-30T14:28:16.535Z,7.1
2023-01-30T14:38:18.239Z,6.8
2023-01-30T14:48:20.435Z,6.4
2023-01-30T14:58:22.306Z,5.6
2023-01-30T15:08:24.119Z,5.5
2023-01-30T15:18:26.207Z,5.7
2023-01-30T15:28:28.031Z,6
2023-01-30T15:38:29.924Z,6
2023-01-30T15:48:31.834Z,6
2023-01-30T15:58:34.143Z,6.1
2023-01-30T16:08:36.365Z,6.3
2023-01-30T16:18:38.682Z,6.3
2023-01-30T17:38:57.246Z,5.8
2023-01-30T17:48:59.671Z,5.6
2023-01-30T17:59:01.858Z,5.6
2023-01-30T18:09:04.480Z,5.6
2023-01-30T18:19:06.185Z,5.4
2023-01-30T18:29:08.234Z,5.3
2023-01-30T18:39:10.379Z,5.2
2023-01-30T18:49:12.305Z,5.1
2023-01-30T18:59:14.013Z,5
2023-01-30T19:09:16.070Z,5
2023-01-30T19:19:18.360Z,4.6
2023-01-30T19:39:23.339Z,4.2
2023-01-30T19:49:25.759Z,4.3
2023-01-30T19:59:28.208Z,4
2023-01-30T20:09:30.038Z,4.1
2023-01-30T20:29:34.702Z,3.9
2023-01-30T20:39:37.371Z,3.8
2023-01-30T20:49:38.713Z,3.6
2023-01-30T20:59:41.102Z,3.6
2023-01-30T21:09:43.239Z,3.6
2023-01-30T21:29:47.480Z,3.7
2023-01-30T21:39:49.212Z,3.6
2023-01-30T21:49:51.539Z,3.6
2023-01-30T21:59:54.148Z,3.6
2023-01-30T22:09:56.441Z,3.7
2023-01-30T22:19:58.695Z,3.5
2023-01-30T22:30:01.027Z,3.2
2023-01-30T22:40:02.871Z,2.8
2023-01-30T22:50:05.351Z,2.8
2023-01-30T23:00:07.039Z,2.5
2023-01-30T23:10:08.888Z,2.5
2023-01-30T23:50:18.130Z,2.3
